sensor_id;sensor_type;location;lat;lon;timestamp;P1;durP1;ratioP1;P2;durP2;ratioP2
29294;SDS011;16305;48.566;8.846;2022-12-07T00:01:19;16.27;;;9.10;;
29294;SDS011;16305;48.566;8.846;2022-12-07T00:03:51;11.67;;;8.10;;
29294;SDS011;16305;48.566;8.846;2022-12-07T00:06:18;13.90;;;8.30;;
29294;SDS011;16305;48.566;8.846;2022-12-07T00:08:45;13.67;;;8.90;;
29294;SDS011;16305;48.566;8.846;2022-12-07T00:11:12;13.17;;;9.17;;
29294;SDS011;16305;48.566;8.846;2022-12-07T00:13:43;11.57;;;8.37;;
29294;SDS011;16305;48.566;8.846;2022-12-07T00:16:16;14.30;;;9.37;;
29294;SDS011;16305;48.566;8.846;2022-12-07T00:18:43;13.03;;;9.53;;
29294;SDS011;16305;48.566;8.846;2022-12-07T00:21:10;15.67;;;9.70;;
29294;SDS011;16305;48.566;8.846;2022-12-07T00:23:41;11.47;;;8.80;;
29294;SDS011;16305;48.566;8.846;2022-12-07T00:28:35;12.73;;;9.20;;
29294;SDS011;16305;48.566;8.846;2022-12-07T00:31:03;14.03;;;8.33;;
29294;SDS011;16305;48.566;8.846;2022-12-07T00:33:29;12.47;;;8.80;;
29294;SDS011;16305;48.566;8.846;2022-12-07T00:35:56;12.67;;;8.73;;
29294;SDS011;16305;48.566;8.846;2022-12-07T00:38:22;11.37;;;8.33;;
29294;SDS011;16305;48.566;8.846;2022-12-07T00:40:57;11.30;;;8.60;;
29294;SDS011;16305;48.566;8.846;2022-12-07T00:43:24;13.67;;;8.53;;
29294;SDS011;16305;48.566;8.846;2022-12-07T00:45:50;11.63;;;8.50;;
29294;SDS011;16305;48.566;8.846;2022-12-07T00:48:15;13.23;;;8.83;;
29294;SDS011;16305;48.566;8.846;2022-12-07T00:50:41;12.90;;;8.23;;
29294;SDS011;16305;48.566;8.846;2022-12-07T00:53:06;11.60;;;8.67;;
29294;SDS011;16305;48.566;8.846;2022-12-07T00:55:35;16.37;;;9.10;;
29294;SDS011;16305;48.566;8.846;2022-12-07T00:58:01;13.17;;;9.27;;
29294;SDS011;16305;48.566;8.846;2022-12-07T01:00:27;13.10;;;9.47;;
29294;SDS011;16305;48.566;8.846;2022-12-07T01:02:53;14.90;;;10.20;;
29294;SDS011;16305;48.566;8.846;2022-12-07T01:05:18;14.53;;;9.80;;
29294;SDS011;16305;48.566;8.846;2022-12-07T01:07:44;13.67;;;10.30;;
29294;SDS011;16305;48.566;8.846;2022-12-07T01:10:11;17.50;;;10.43;;
29294;SDS011;16305;48.566;8.846;2022-12-07T01:12:37;18.27;;;10.23;;
29294;SDS011;16305;48.566;8.846;2022-12-07T01:15:03;14.10;;;9.30;;
29294;SDS011;16305;48.566;8.846;2022-12-07T01:17:29;14.60;;;9.50;;
29294;SDS011;16305;48.566;8.846;2022-12-07T01:19:55;13.97;;;10.00;;
29294;SDS011;16305;48.566;8.846;2022-12-07T01:22:20;13.50;;;8.63;;
29294;SDS011;16305;48.566;8.846;2022-12-07T01:24:46;13.80;;;8.50;;
29294;SDS011;16305;48.566;8.846;2022-12-07T01:27:12;13.80;;;9.10;;
29294;SDS011;16305;48.566;8.846;2022-12-07T01:29:38;14.03;;;9.50;;
29294;SDS011;16305;48.566;8.846;2022-12-07T01:32:04;12.20;;;8.90;;
29294;SDS011;16305;48.566;8.846;2022-12-07T01:34:29;12.27;;;8.53;;
29294;SDS011;16305;48.566;8.846;2022-12-07T01:36:55;13.53;;;9.03;;
29294;SDS011;16305;48.566;8.846;2022-12-07T01:39:21;13.10;;;9.30;;
29294;SDS011;16305;48.566;8.846;2022-12-07T01:41:47;11.73;;;9.00;;
29294;SDS011;16305;48.566;8.846;2022-12-07T01:46:46;12.80;;;8.13;;
29294;SDS011;16305;48.566;8.846;2022-12-07T01:49:24;13.50;;;8.27;;
29294;SDS011;16305;48.566;8.846;2022-12-07T01:51:58;11.53;;;8.30;;
29294;SDS011;16305;48.566;8.846;2022-12-07T01:54:46;12.93;;;8.50;;
29294;SDS011;16305;48.566;8.846;2022-12-07T01:57:13;12.27;;;8.03;;
29294;SDS011;16305;48.566;8.846;2022-12-07T01:59:40;12.40;;;7.57;;
29294;SDS011;16305;48.566;8.846;2022-12-07T02:02:08;12.53;;;7.83;;
29294;SDS011;16305;48.566;8.846;2022-12-07T02:04:44;11.03;;;7.43;;
29294;SDS011;16305;48.566;8.846;2022-12-07T02:07:10;11.67;;;8.43;;
29294;SDS011;16305;48.566;8.846;2022-12-07T02:09:36;10.10;;;7.80;;
29294;SDS011;16305;48.566;8.846;2022-12-07T02:12:02;10.53;;;7.87;;
29294;SDS011;16305;48.566;8.846;2022-12-07T02:14:28;11.83;;;8.30;;
29294;SDS011;16305;48.566;8.846;2022-12-07T02:19:39;10.23;;;7.90;;
29294;SDS011;16305;48.566;8.846;2022-12-07T02:25:16;12.17;;;9.63;;
29294;SDS011;16305;48.566;8.846;2022-12-07T02:28:07;11.17;;;8.90;;
29294;SDS011;16305;48.566;8.846;2022-12-07T02:30:45;13.10;;;9.70;;
29294;SDS011;16305;48.566;8.846;2022-12-07T02:33:14;13.27;;;9.60;;
29294;SDS011;16305;48.566;8.846;2022-12-07T02:35:59;12.30;;;8.53;;
29294;SDS011;16305;48.566;8.846;2022-12-07T02:38:31;15.17;;;9.47;;
29294;SDS011;16305;48.566;8.846;2022-12-07T02:41:19;12.47;;;8.80;;
29294;SDS011;16305;48.566;8.846;2022-12-07T02:44:10;16.63;;;10.53;;
29294;SDS011;16305;48.566;8.846;2022-12-07T02:46:42;13.43;;;9.37;;
29294;SDS011;16305;48.566;8.846;2022-12-07T02:49:12;14.93;;;9.93;;
29294;SDS011;16305;48.566;8.846;2022-12-07T02:51:39;12.77;;;8.80;;
29294;SDS011;16305;48.566;8.846;2022-12-07T02:54:12;13.10;;;9.37;;
29294;SDS011;16305;48.566;8.846;2022-12-07T03:05:39;12.83;;;9.10;;
29294;SDS011;16305;48.566;8.846;2022-12-07T03:10:56;12.07;;;8.07;;
29294;SDS011;16305;48.566;8.846;2022-12-07T03:18:50;12.77;;;8.93;;
29294;SDS011;16305;48.566;8.846;2022-12-07T03:21:21;12.43;;;8.30;;
29294;SDS011;16305;48.566;8.846;2022-12-07T03:23:54;11.53;;;8.70;;
29294;SDS011;16305;48.566;8.846;2022-12-07T03:26:23;16.33;;;9.80;;
29294;SDS011;16305;48.566;8.846;2022-12-07T03:28:55;17.20;;;10.90;;
29294;SDS011;16305;48.566;8.846;2022-12-07T03:31:26;21.60;;;12.47;;
29294;SDS011;16305;48.566;8.846;2022-12-07T03:34:01;27.13;;;13.30;;
29294;SDS011;16305;48.566;8.846;2022-12-07T03:37:08;24.17;;;13.07;;
29294;SDS011;16305;48.566;8.846;2022-12-07T03:39:58;18.67;;;11.50;;
29294;SDS011;16305;48.566;8.846;2022-12-07T03:42:38;19.10;;;11.63;;
29294;SDS011;16305;48.566;8.846;2022-12-07T03:45:04;22.37;;;12.53;;
29294;SDS011;16305;48.566;8.846;2022-12-07T03:47:37;19.83;;;11.40;;
29294;SDS011;16305;48.566;8.846;2022-12-07T03:50:48;20.87;;;12.10;;
29294;SDS011;16305;48.566;8.846;2022-12-07T03:53:29;21.77;;;12.47;;
29294;SDS011;16305;48.566;8.846;2022-12-07T03:56:01;21.00;;;11.97;;
29294;SDS011;16305;48.566;8.846;2022-12-07T03:58:27;19.27;;;12.03;;
29294;SDS011;16305;48.566;8.846;2022-12-07T04:00:55;16.80;;;11.07;;
29294;SDS011;16305;48.566;8.846;2022-12-07T04:03:20;19.33;;;12.20;;
29294;SDS011;16305;48.566;8.846;2022-12-07T04:05:46;20.27;;;11.27;;
29294;SDS011;16305;48.566;8.846;2022-12-07T04:08:12;20.87;;;12.70;;
29294;SDS011;16305;48.566;8.846;2022-12-07T04:10:38;19.50;;;11.80;;
29294;SDS011;16305;48.566;8.846;2022-12-07T04:13:03;20.60;;;12.57;;
29294;SDS011;16305;48.566;8.846;2022-12-07T04:15:29;25.03;;;12.73;;
29294;SDS011;16305;48.566;8.846;2022-12-07T04:17:54;21.03;;;13.13;;
29294;SDS011;16305;48.566;8.846;2022-12-07T04:20:20;22.37;;;13.37;;
29294;SDS011;16305;48.566;8.846;2022-12-07T04:22:46;22.30;;;12.97;;
29294;SDS011;16305;48.566;8.846;2022-12-07T04:25:11;19.50;;;12.23;;
29294;SDS011;16305;48.566;8.846;2022-12-07T04:27:37;19.67;;;12.03;;
29294;SDS011;16305;48.566;8.846;2022-12-07T04:30:03;20.37;;;12.40;;
29294;SDS011;16305;48.566;8.846;2022-12-07T04:32:31;22.23;;;13.87;;
29294;SDS011;16305;48.566;8.846;2022-12-07T04:34:57;22.63;;;13.70;;
29294;SDS011;16305;48.566;8.846;2022-12-07T04:37:23;25.97;;;13.80;;
29294;SDS011;16305;48.566;8.846;2022-12-07T04:39:49;25.33;;;13.23;;
29294;SDS011;16305;48.566;8.846;2022-12-07T04:42:14;23.80;;;13.20;;
29294;SDS011;16305;48.566;8.846;2022-12-07T04:44:40;21.33;;;13.10;;
29294;SDS011;16305;48.566;8.846;2022-12-07T04:47:05;24.57;;;14.13;;
29294;SDS011;16305;48.566;8.846;2022-12-07T04:49:31;23.50;;;12.93;;
29294;SDS011;16305;48.566;8.846;2022-12-07T04:51:57;21.57;;;13.13;;
29294;SDS011;16305;48.566;8.846;2022-12-07T04:54:22;20.00;;;12.63;;
29294;SDS011;16305;48.566;8.846;2022-12-07T04:56:48;24.97;;;13.60;;
29294;SDS011;16305;48.566;8.846;2022-12-07T04:59:14;24.23;;;14.30;;
29294;SDS011;16305;48.566;8.846;2022-12-07T05:01:40;19.73;;;12.80;;
29294;SDS011;16305;48.566;8.846;2022-12-07T05:04:07;18.17;;;12.40;;
29294;SDS011;16305;48.566;8.846;2022-12-07T05:06:33;17.60;;;11.60;;
29294;SDS011;16305;48.566;8.846;2022-12-07T05:08:59;17.00;;;11.73;;
29294;SDS011;16305;48.566;8.846;2022-12-07T05:11:26;16.57;;;11.17;;
29294;SDS011;16305;48.566;8.846;2022-12-07T05:14:05;20.30;;;12.37;;
29294;SDS011;16305;48.566;8.846;2022-12-07T05:16:35;17.90;;;11.60;;
29294;SDS011;16305;48.566;8.846;2022-12-07T05:19:02;14.53;;;10.00;;
29294;SDS011;16305;48.566;8.846;2022-12-07T05:21:28;14.60;;;10.13;;
29294;SDS011;16305;48.566;8.846;2022-12-07T05:23:53;17.27;;;10.77;;
29294;SDS011;16305;48.566;8.846;2022-12-07T05:26:19;19.17;;;12.30;;
29294;SDS011;16305;48.566;8.846;2022-12-07T05:28:44;22.60;;;13.67;;
29294;SDS011;16305;48.566;8.846;2022-12-07T05:31:14;26.57;;;16.60;;
29294;SDS011;16305;48.566;8.846;2022-12-07T05:33:39;30.23;;;16.27;;
29294;SDS011;16305;48.566;8.846;2022-12-07T05:36:05;27.70;;;15.33;;
29294;SDS011;16305;48.566;8.846;2022-12-07T05:38:32;27.73;;;13.83;;
29294;SDS011;16305;48.566;8.846;2022-12-07T05:41:02;23.03;;;12.27;;
29294;SDS011;16305;48.566;8.846;2022-12-07T05:43:29;22.37;;;12.83;;
29294;SDS011;16305;48.566;8.846;2022-12-07T05:45:55;21.10;;;11.67;;
29294;SDS011;16305;48.566;8.846;2022-12-07T05:48:21;18.77;;;11.00;;
29294;SDS011;16305;48.566;8.846;2022-12-07T05:50:49;20.30;;;12.27;;
29294;SDS011;16305;48.566;8.846;2022-12-07T05:53:15;21.57;;;11.67;;
29294;SDS011;16305;48.566;8.846;2022-12-07T05:55:42;20.67;;;11.57;;
29294;SDS011;16305;48.566;8.846;2022-12-07T05:58:07;30.33;;;15.47;;
29294;SDS011;16305;48.566;8.846;2022-12-07T06:00:53;27.40;;;15.57;;
29294;SDS011;16305;48.566;8.846;2022-12-07T06:03:22;26.97;;;15.10;;
29294;SDS011;16305;48.566;8.846;2022-12-07T06:05:48;24.17;;;13.20;;
29294;SDS011;16305;48.566;8.846;2022-12-07T06:08:14;22.20;;;12.57;;
29294;SDS011;16305;48.566;8.846;2022-12-07T06:10:42;21.53;;;13.23;;
29294;SDS011;16305;48.566;8.846;2022-12-07T06:13:08;21.60;;;12.60;;
29294;SDS011;16305;48.566;8.846;2022-12-07T06:15:37;25.23;;;12.97;;
29294;SDS011;16305;48.566;8.846;2022-12-07T06:18:03;23.33;;;12.23;;
29294;SDS011;16305;48.566;8.846;2022-12-07T06:20:28;23.90;;;12.60;;
29294;SDS011;16305;48.566;8.846;2022-12-07T06:22:54;19.50;;;11.87;;
29294;SDS011;16305;48.566;8.846;2022-12-07T06:25:19;19.07;;;11.47;;
29294;SDS011;16305;48.566;8.846;2022-12-07T06:27:45;22.13;;;11.73;;
29294;SDS011;16305;48.566;8.846;2022-12-07T06:30:10;19.00;;;12.03;;
29294;SDS011;16305;48.566;8.846;2022-12-07T06:32:36;19.07;;;11.93;;
29294;SDS011;16305;48.566;8.846;2022-12-07T06:35:02;16.67;;;10.43;;
29294;SDS011;16305;48.566;8.846;2022-12-07T06:37:28;18.50;;;11.13;;
29294;SDS011;16305;48.566;8.846;2022-12-07T06:39:54;17.60;;;10.70;;
29294;SDS011;16305;48.566;8.846;2022-12-07T06:42:19;15.30;;;9.93;;
29294;SDS011;16305;48.566;8.846;2022-12-07T06:44:45;14.73;;;9.93;;
29294;SDS011;16305;48.566;8.846;2022-12-07T06:47:10;15.53;;;10.27;;
29294;SDS011;16305;48.566;8.846;2022-12-07T06:49:36;12.87;;;9.07;;
29294;SDS011;16305;48.566;8.846;2022-12-07T06:52:02;14.10;;;8.87;;
29294;SDS011;16305;48.566;8.846;2022-12-07T06:54:29;14.47;;;9.20;;
29294;SDS011;16305;48.566;8.846;2022-12-07T06:56:55;18.77;;;10.47;;
29294;SDS011;16305;48.566;8.846;2022-12-07T06:59:20;17.70;;;11.43;;
29294;SDS011;16305;48.566;8.846;2022-12-07T07:01:46;14.10;;;9.47;;
29294;SDS011;16305;48.566;8.846;2022-12-07T07:04:11;16.50;;;10.03;;
29294;SDS011;16305;48.566;8.846;2022-12-07T07:06:37;21.00;;;10.23;;
29294;SDS011;16305;48.566;8.846;2022-12-07T07:09:03;14.73;;;10.60;;
29294;SDS011;16305;48.566;8.846;2022-12-07T07:11:28;16.03;;;11.13;;
29294;SDS011;16305;48.566;8.846;2022-12-07T07:13:54;19.17;;;11.90;;
29294;SDS011;16305;48.566;8.846;2022-12-07T07:16:22;17.10;;;10.83;;
29294;SDS011;16305;48.566;8.846;2022-12-07T07:18:48;17.83;;;11.00;;
29294;SDS011;16305;48.566;8.846;2022-12-07T07:21:13;20.33;;;11.10;;
29294;SDS011;16305;48.566;8.846;2022-12-07T07:23:39;14.47;;;9.73;;
29294;SDS011;16305;48.566;8.846;2022-12-07T07:26:04;13.77;;;9.30;;
29294;SDS011;16305;48.566;8.846;2022-12-07T07:28:30;12.40;;;8.83;;
29294;SDS011;16305;48.566;8.846;2022-12-07T07:30:55;11.27;;;8.10;;
29294;SDS011;16305;48.566;8.846;2022-12-07T07:33:21;12.87;;;9.07;;
29294;SDS011;16305;48.566;8.846;2022-12-07T07:35:46;10.77;;;7.10;;
29294;SDS011;16305;48.566;8.846;2022-12-07T07:38:12;14.30;;;8.73;;
29294;SDS011;16305;48.566;8.846;2022-12-07T07:40:37;17.77;;;10.97;;
29294;SDS011;16305;48.566;8.846;2022-12-07T07:43:03;13.73;;;9.00;;
29294;SDS011;16305;48.566;8.846;2022-12-07T07:45:29;15.23;;;9.47;;
29294;SDS011;16305;48.566;8.846;2022-12-07T07:47:54;15.73;;;9.80;;
29294;SDS011;16305;48.566;8.846;2022-12-07T07:50:20;17.77;;;9.90;;
29294;SDS011;16305;48.566;8.846;2022-12-07T07:52:46;20.27;;;12.60;;
29294;SDS011;16305;48.566;8.846;2022-12-07T07:55:11;18.53;;;12.03;;
29294;SDS011;16305;48.566;8.846;2022-12-07T07:57:37;23.73;;;12.93;;
29294;SDS011;16305;48.566;8.846;2022-12-07T08:00:04;24.87;;;12.10;;
29294;SDS011;16305;48.566;8.846;2022-12-07T08:02:35;19.27;;;11.73;;
29294;SDS011;16305;48.566;8.846;2022-12-07T08:05:00;17.97;;;11.03;;
29294;SDS011;16305;48.566;8.846;2022-12-07T08:07:26;19.10;;;11.20;;
29294;SDS011;16305;48.566;8.846;2022-12-07T08:09:52;14.93;;;10.10;;
29294;SDS011;16305;48.566;8.846;2022-12-07T08:12:18;16.77;;;10.07;;
29294;SDS011;16305;48.566;8.846;2022-12-07T08:14:43;15.60;;;9.93;;
29294;SDS011;16305;48.566;8.846;2022-12-07T08:17:09;14.33;;;9.57;;
29294;SDS011;16305;48.566;8.846;2022-12-07T08:19:34;12.83;;;8.50;;
29294;SDS011;16305;48.566;8.846;2022-12-07T08:22:00;14.40;;;8.87;;
29294;SDS011;16305;48.566;8.846;2022-12-07T08:24:26;14.13;;;8.47;;
29294;SDS011;16305;48.566;8.846;2022-12-07T08:26:51;12.03;;;8.87;;
29294;SDS011;16305;48.566;8.846;2022-12-07T08:29:17;13.53;;;8.33;;
29294;SDS011;16305;48.566;8.846;2022-12-07T08:31:43;17.40;;;9.43;;
29294;SDS011;16305;48.566;8.846;2022-12-07T08:34:10;14.23;;;9.90;;
29294;SDS011;16305;48.566;8.846;2022-12-07T08:36:36;14.63;;;10.00;;
29294;SDS011;16305;48.566;8.846;2022-12-07T08:39:01;14.80;;;10.07;;
29294;SDS011;16305;48.566;8.846;2022-12-07T08:41:27;16.03;;;10.00;;
29294;SDS011;16305;48.566;8.846;2022-12-07T08:43:53;15.27;;;9.60;;
29294;SDS011;16305;48.566;8.846;2022-12-07T08:46:19;14.37;;;9.13;;
29294;SDS011;16305;48.566;8.846;2022-12-07T08:48:54;15.63;;;10.40;;
29294;SDS011;16305;48.566;8.846;2022-12-07T08:51:23;18.37;;;11.13;;
29294;SDS011;16305;48.566;8.846;2022-12-07T08:53:49;16.10;;;10.93;;
29294;SDS011;16305;48.566;8.846;2022-12-07T08:56:17;16.07;;;9.63;;
29294;SDS011;16305;48.566;8.846;2022-12-07T08:58:43;18.40;;;9.93;;
29294;SDS011;16305;48.566;8.846;2022-12-07T09:01:09;12.60;;;8.90;;
29294;SDS011;16305;48.566;8.846;2022-12-07T09:03:34;9.77;;;7.17;;
29294;SDS011;16305;48.566;8.846;2022-12-07T09:06:00;11.00;;;7.50;;
29294;SDS011;16305;48.566;8.846;2022-12-07T09:08:26;10.60;;;7.80;;
29294;SDS011;16305;48.566;8.846;2022-12-07T09:10:58;10.20;;;7.07;;
29294;SDS011;16305;48.566;8.846;2022-12-07T09:13:24;10.33;;;7.20;;
29294;SDS011;16305;48.566;8.846;2022-12-07T09:15:49;12.47;;;7.77;;
29294;SDS011;16305;48.566;8.846;2022-12-07T09:18:15;9.93;;;7.30;;
29294;SDS011;16305;48.566;8.846;2022-12-07T09:20:41;10.27;;;7.50;;
29294;SDS011;16305;48.566;8.846;2022-12-07T09:23:06;11.37;;;7.37;;
29294;SDS011;16305;48.566;8.846;2022-12-07T09:25:33;12.10;;;7.20;;
29294;SDS011;16305;48.566;8.846;2022-12-07T09:27:59;11.73;;;7.73;;
29294;SDS011;16305;48.566;8.846;2022-12-07T09:30:25;10.87;;;6.97;;
29294;SDS011;16305;48.566;8.846;2022-12-07T09:32:55;12.83;;;7.33;;
29294;SDS011;16305;48.566;8.846;2022-12-07T09:35:21;8.80;;;6.57;;
29294;SDS011;16305;48.566;8.846;2022-12-07T09:37:48;9.47;;;7.00;;
29294;SDS011;16305;48.566;8.846;2022-12-07T09:40:14;9.30;;;6.57;;
29294;SDS011;16305;48.566;8.846;2022-12-07T09:42:42;9.23;;;7.47;;
29294;SDS011;16305;48.566;8.846;2022-12-07T09:45:13;12.53;;;8.30;;
29294;SDS011;16305;48.566;8.846;2022-12-07T09:47:41;7.10;;;5.60;;
29294;SDS011;16305;48.566;8.846;2022-12-07T09:50:12;8.13;;;5.90;;
29294;SDS011;16305;48.566;8.846;2022-12-07T09:52:40;9.57;;;6.93;;
29294;SDS011;16305;48.566;8.846;2022-12-07T09:55:09;8.80;;;6.17;;
29294;SDS011;16305;48.566;8.846;2022-12-07T09:57:40;10.60;;;7.13;;
29294;SDS011;16305;48.566;8.846;2022-12-07T10:00:10;9.63;;;6.67;;
29294;SDS011;16305;48.566;8.846;2022-12-07T10:02:59;9.83;;;7.33;;
29294;SDS011;16305;48.566;8.846;2022-12-07T10:05:36;8.53;;;6.93;;
29294;SDS011;16305;48.566;8.846;2022-12-07T10:08:04;10.03;;;6.60;;
29294;SDS011;16305;48.566;8.846;2022-12-07T10:10:34;11.47;;;7.17;;
29294;SDS011;16305;48.566;8.846;2022-12-07T10:13:05;13.00;;;8.27;;
29294;SDS011;16305;48.566;8.846;2022-12-07T10:15:42;13.37;;;9.53;;
29294;SDS011;16305;48.566;8.846;2022-12-07T10:18:32;16.53;;;10.77;;
29294;SDS011;16305;48.566;8.846;2022-12-07T10:28:56;10.77;;;7.60;;
29294;SDS011;16305;48.566;8.846;2022-12-07T10:31:24;11.37;;;9.20;;
29294;SDS011;16305;48.566;8.846;2022-12-07T10:33:54;15.60;;;9.20;;
29294;SDS011;16305;48.566;8.846;2022-12-07T10:36:37;11.83;;;9.13;;
29294;SDS011;16305;48.566;8.846;2022-12-07T10:42:00;10.70;;;7.97;;
29294;SDS011;16305;48.566;8.846;2022-12-07T10:44:28;16.40;;;10.37;;
29294;SDS011;16305;48.566;8.846;2022-12-07T10:47:03;15.27;;;9.03;;
29294;SDS011;16305;48.566;8.846;2022-12-07T10:55:33;12.80;;;8.90;;
29294;SDS011;16305;48.566;8.846;2022-12-07T11:04:04;11.40;;;7.77;;
29294;SDS011;16305;48.566;8.846;2022-12-07T11:18:11;7.57;;;5.17;;
29294;SDS011;16305;48.566;8.846;2022-12-07T11:21:02;6.20;;;5.13;;
29294;SDS011;16305;48.566;8.846;2022-12-07T11:26:18;6.13;;;4.73;;
29294;SDS011;16305;48.566;8.846;2022-12-07T11:37:02;9.90;;;7.27;;
29294;SDS011;16305;48.566;8.846;2022-12-07T11:39:39;8.87;;;5.53;;
29294;SDS011;16305;48.566;8.846;2022-12-07T11:42:15;6.90;;;6.00;;
29294;SDS011;16305;48.566;8.846;2022-12-07T11:44:52;6.43;;;4.83;;
29294;SDS011;16305;48.566;8.846;2022-12-07T11:47:45;6.83;;;5.70;;
29294;SDS011;16305;48.566;8.846;2022-12-07T11:53:20;5.60;;;4.80;;
29294;SDS011;16305;48.566;8.846;2022-12-07T11:55:53;5.97;;;4.77;;
29294;SDS011;16305;48.566;8.846;2022-12-07T11:58:34;6.17;;;4.83;;
29294;SDS011;16305;48.566;8.846;2022-12-07T12:03:38;5.40;;;4.23;;
29294;SDS011;16305;48.566;8.846;2022-12-07T12:06:09;5.17;;;4.17;;
29294;SDS011;16305;48.566;8.846;2022-12-07T12:08:36;7.53;;;4.63;;
29294;SDS011;16305;48.566;8.846;2022-12-07T12:13:59;10.47;;;7.27;;
29294;SDS011;16305;48.566;8.846;2022-12-07T12:19:19;10.47;;;7.20;;
29294;SDS011;16305;48.566;8.846;2022-12-07T12:22:14;12.10;;;7.57;;
29294;SDS011;16305;48.566;8.846;2022-12-07T12:24:42;12.27;;;7.37;;
29294;SDS011;16305;48.566;8.846;2022-12-07T12:27:15;5.03;;;3.63;;
29294;SDS011;16305;48.566;8.846;2022-12-07T12:29:52;3.80;;;3.07;;
29294;SDS011;16305;48.566;8.846;2022-12-07T12:32:21;5.03;;;2.90;;
29294;SDS011;16305;48.566;8.846;2022-12-07T12:42:50;12.57;;;7.13;;
29294;SDS011;16305;48.566;8.846;2022-12-07T12:50:49;9.67;;;6.33;;
29294;SDS011;16305;48.566;8.846;2022-12-07T12:53:53;8.60;;;6.37;;
29294;SDS011;16305;48.566;8.846;2022-12-07T12:56:40;9.20;;;6.50;;
29294;SDS011;16305;48.566;8.846;2022-12-07T13:01:55;9.33;;;6.50;;
29294;SDS011;16305;48.566;8.846;2022-12-07T13:04:48;9.13;;;6.60;;
29294;SDS011;16305;48.566;8.846;2022-12-07T13:12:58;8.37;;;6.00;;
29294;SDS011;16305;48.566;8.846;2022-12-07T13:17:59;9.90;;;6.00;;
29294;SDS011;16305;48.566;8.846;2022-12-07T13:23:12;5.83;;;4.50;;
29294;SDS011;16305;48.566;8.846;2022-12-07T13:25:45;5.20;;;4.20;;
29294;SDS011;16305;48.566;8.846;2022-12-07T13:28:19;6.20;;;4.43;;
29294;SDS011;16305;48.566;8.846;2022-12-07T13:30:54;8.67;;;5.80;;
29294;SDS011;16305;48.566;8.846;2022-12-07T13:33:29;6.47;;;4.10;;
29294;SDS011;16305;48.566;8.846;2022-12-07T13:35:55;3.50;;;2.57;;
29294;SDS011;16305;48.566;8.846;2022-12-07T13:38:25;3.43;;;2.63;;
29294;SDS011;16305;48.566;8.846;2022-12-07T13:41:28;2.33;;;2.00;;
29294;SDS011;16305;48.566;8.846;2022-12-07T13:43:54;3.03;;;2.53;;
29294;SDS011;16305;48.566;8.846;2022-12-07T13:46:48;3.57;;;2.77;;
29294;SDS011;16305;48.566;8.846;2022-12-07T13:49:20;3.50;;;2.60;;
29294;SDS011;16305;48.566;8.846;2022-12-07T13:51:49;3.60;;;2.97;;
29294;SDS011;16305;48.566;8.846;2022-12-07T13:54:15;3.40;;;2.93;;
29294;SDS011;16305;48.566;8.846;2022-12-07T13:56:41;2.90;;;2.60;;
29294;SDS011;16305;48.566;8.846;2022-12-07T13:59:14;4.87;;;3.20;;
29294;SDS011;16305;48.566;8.846;2022-12-07T14:01:46;3.90;;;2.93;;
29294;SDS011;16305;48.566;8.846;2022-12-07T14:06:47;3.70;;;2.63;;
29294;SDS011;16305;48.566;8.846;2022-12-07T14:09:20;4.17;;;3.33;;
29294;SDS011;16305;48.566;8.846;2022-12-07T14:11:51;4.20;;;3.40;;
29294;SDS011;16305;48.566;8.846;2022-12-07T14:14:20;4.53;;;3.33;;
29294;SDS011;16305;48.566;8.846;2022-12-07T14:22:44;3.50;;;3.20;;
29294;SDS011;16305;48.566;8.846;2022-12-07T14:27:38;3.73;;;3.07;;
29294;SDS011;16305;48.566;8.846;2022-12-07T14:30:04;4.20;;;3.40;;
29294;SDS011;16305;48.566;8.846;2022-12-07T14:32:30;4.03;;;3.53;;
29294;SDS011;16305;48.566;8.846;2022-12-07T14:35:00;4.07;;;3.20;;
29294;SDS011;16305;48.566;8.846;2022-12-07T14:37:26;4.20;;;3.00;;
29294;SDS011;16305;48.566;8.846;2022-12-07T14:39:52;3.90;;;3.50;;
29294;SDS011;16305;48.566;8.846;2022-12-07T14:42:18;3.67;;;3.30;;
29294;SDS011;16305;48.566;8.846;2022-12-07T14:44:44;4.83;;;2.67;;
29294;SDS011;16305;48.566;8.846;2022-12-07T14:47:10;3.43;;;2.63;;
29294;SDS011;16305;48.566;8.846;2022-12-07T14:49:36;4.33;;;3.00;;
29294;SDS011;16305;48.566;8.846;2022-12-07T14:52:01;3.37;;;2.73;;
29294;SDS011;16305;48.566;8.846;2022-12-07T14:54:29;3.27;;;2.90;;
29294;SDS011;16305;48.566;8.846;2022-12-07T14:56:56;2.77;;;2.53;;
29294;SDS011;16305;48.566;8.846;2022-12-07T14:59:22;3.77;;;3.10;;
29294;SDS011;16305;48.566;8.846;2022-12-07T15:01:47;3.13;;;2.83;;
29294;SDS011;16305;48.566;8.846;2022-12-07T15:04:13;3.37;;;2.90;;
29294;SDS011;16305;48.566;8.846;2022-12-07T15:06:38;6.47;;;3.00;;
29294;SDS011;16305;48.566;8.846;2022-12-07T15:09:04;3.30;;;2.70;;
29294;SDS011;16305;48.566;8.846;2022-12-07T15:11:30;3.03;;;2.70;;
29294;SDS011;16305;48.566;8.846;2022-12-07T15:13:56;2.97;;;2.60;;
29294;SDS011;16305;48.566;8.846;2022-12-07T15:16:34;3.30;;;2.60;;
29294;SDS011;16305;48.566;8.846;2022-12-07T15:19:01;3.33;;;2.80;;
29294;SDS011;16305;48.566;8.846;2022-12-07T15:21:27;3.80;;;2.80;;
29294;SDS011;16305;48.566;8.846;2022-12-07T15:23:52;3.73;;;3.03;;
29294;SDS011;16305;48.566;8.846;2022-12-07T15:26:18;5.20;;;3.30;;
29294;SDS011;16305;48.566;8.846;2022-12-07T15:28:44;4.67;;;3.50;;
29294;SDS011;16305;48.566;8.846;2022-12-07T15:31:13;7.33;;;4.00;;
29294;SDS011;16305;48.566;8.846;2022-12-07T15:33:40;6.70;;;3.90;;
29294;SDS011;16305;48.566;8.846;2022-12-07T15:36:06;9.73;;;4.03;;
29294;SDS011;16305;48.566;8.846;2022-12-07T15:38:32;6.93;;;4.80;;
29294;SDS011;16305;48.566;8.846;2022-12-07T15:40:58;5.40;;;4.40;;
29294;SDS011;16305;48.566;8.846;2022-12-07T15:43:24;4.60;;;3.67;;
29294;SDS011;16305;48.566;8.846;2022-12-07T15:46:08;5.60;;;4.33;;
29294;SDS011;16305;48.566;8.846;2022-12-07T15:48:33;5.10;;;4.00;;
29294;SDS011;16305;48.566;8.846;2022-12-07T15:51:03;6.60;;;4.50;;
29294;SDS011;16305;48.566;8.846;2022-12-07T15:53:33;8.60;;;4.80;;
29294;SDS011;16305;48.566;8.846;2022-12-07T15:55:59;7.07;;;4.60;;
29294;SDS011;16305;48.566;8.846;2022-12-07T15:58:25;8.60;;;5.57;;
29294;SDS011;16305;48.566;8.846;2022-12-07T16:00:51;7.53;;;4.73;;
29294;SDS011;16305;48.566;8.846;2022-12-07T16:03:16;7.37;;;4.83;;
29294;SDS011;16305;48.566;8.846;2022-12-07T16:05:48;8.13;;;4.30;;
29294;SDS011;16305;48.566;8.846;2022-12-07T16:08:14;6.53;;;4.43;;
29294;SDS011;16305;48.566;8.846;2022-12-07T16:10:40;8.17;;;4.37;;
29294;SDS011;16305;48.566;8.846;2022-12-07T16:13:08;4.77;;;4.17;;
29294;SDS011;16305;48.566;8.846;2022-12-07T16:15:38;5.27;;;3.50;;
29294;SDS011;16305;48.566;8.846;2022-12-07T16:18:07;3.90;;;3.37;;
29294;SDS011;16305;48.566;8.846;2022-12-07T16:20:33;4.67;;;3.83;;
29294;SDS011;16305;48.566;8.846;2022-12-07T16:22:59;5.57;;;4.27;;
29294;SDS011;16305;48.566;8.846;2022-12-07T16:25:24;6.50;;;3.87;;
29294;SDS011;16305;48.566;8.846;2022-12-07T16:27:51;5.87;;;4.27;;
29294;SDS011;16305;48.566;8.846;2022-12-07T16:30:17;8.77;;;3.80;;
29294;SDS011;16305;48.566;8.846;2022-12-07T16:32:43;5.10;;;3.80;;
29294;SDS011;16305;48.566;8.846;2022-12-07T16:35:09;5.37;;;4.00;;
29294;SDS011;16305;48.566;8.846;2022-12-07T16:37:35;16.20;;;4.50;;
29294;SDS011;16305;48.566;8.846;2022-12-07T16:40:00;5.37;;;4.00;;
29294;SDS011;16305;48.566;8.846;2022-12-07T16:42:26;7.07;;;4.13;;
29294;SDS011;16305;48.566;8.846;2022-12-07T16:44:56;5.80;;;4.40;;
29294;SDS011;16305;48.566;8.846;2022-12-07T16:47:21;5.43;;;4.70;;
29294;SDS011;16305;48.566;8.846;2022-12-07T16:49:47;5.67;;;4.50;;